Terminal Aerodrome Forecast
Issued by NWS

Home | Current Version | Previous Version | Graphics & Text | Print | Product List | Glossary On
Versions: 1 2 3 4 5 6 7 8 9 10 11 12 13 14 15 16 17 18 19 20 21 22 23 24 25 26 27 28 29 30 31 32
847
FTUS43 KLOT 280915 AAB
TAFMDW
TAF AMD
KMDW 280915Z 2809/2906 04007KT 6SM -RA BR SCT008 BKN020 OVC060
      TEMPO 2809/2810 2SM RA BR BKN008
     FM281000 04010KT 6SM BR SCT020 OVC060
      TEMPO 2810/2812 BKN020
     FM281200 07012G16KT P6SM SCT007 OVC010
     FM281600 06014G20KT P6SM VCSH OVC015
     FM282100 05011KT P6SM OVC015
     FM290100 02005KT P6SM OVC010=

USA.gov is the U.S. government's official web portal to all federal, state and local government web resources and services.